Nearby METAR Reports

 

YSCB - Canberra (civ/Mi, Australia
Distance from station: NNE 21km
Updated: 17/01/2018 23:00
Clear
Clear
 Wind from E
Wind: E 6 km/h
Temperature: 17°C
Dew Point: 7°C
Humidity: 52%
Barometer: 1020 hPa
Clouds: Clear
Visibility: 10 km
2018/01/17 12:00 YSCB 171200Z AUTO 08003KT 9999 // NCD 17/07 Q1020
YCOM - Cooma Snowy Mtns, Australia
Distance from station: S 94km
Updated: 17/01/2018 23:00
Clear
Clear
 Wind from NNE
Wind: NNE 7 km/h
Temperature: 12°C
Dew Point: 10°C
Humidity: 88%
Barometer: 1022 hPa
Clouds: Clear
Visibility: 10 km
2018/01/17 12:00 YCOM 171200Z AUTO 03004KT 9999 // NCD 12/10 Q1022
 
YSNW - Nowra (aus-Navy), Australia
Distance from station: ENE 140km
Updated: 17/01/2018 23:00
Clear
Clear
 Wind from calm
Wind: Calm
Temperature: 14°C
Dew Point: 11°C
Humidity: 82%
Barometer: 1020 hPa
Clouds: Clear
Visibility: 10 km
2018/01/17 12:00 YSNW 171200Z AUTO 00000KT 9999 // NCD 14/11 Q1020
YSWG - Wagga Wagga(Cv/M, Australia
Distance from station: WNW 153km
Updated: 17/01/2018 23:00
Clear
Clear
 Wind from SSE
Wind: SSE 9 km/h
Temperature: 20°C
Dew Point: 7°C
Humidity: 43%
Barometer: 1016 hPa
Clouds: Clear
Visibility: 10 km
2018/01/17 12:00 YSWG 171200Z AUTO 15005KT 9999 // NCD 20/07 Q1016
 
YMER - Merimbula Arpt, Australia
Distance from station: SSE 177km
Updated: 13/01/2018 22:35
NOT Current
Mostly cloudy
Mostly cloudy
 Wind from calm
Wind: Calm
Temperature: 14°C
Dew Point: 13°C
Humidity: 94%
Barometer: 1005 hPa
Clouds: Mostly cloudy
Visibility: 5 km
Cloud details: Partly cloudy 1067 m
Partly cloudy 1433 m
Mostly cloudy 1920 m
2018/01/13 11:35 YMER 131135Z AUTO 00000KT 5000 // SCT035 SCT047 BKN063 14/13 Q1005
YMAY - Albury Airport, Australia
Distance from station: WSW 207km
Updated: 17/01/2018 23:00
Clear
Clear
 Wind from S
Wind: S 7 km/h
Temperature: 20°C
Dew Point: 9°C
Humidity: 49%
Barometer: 1016 hPa
Clouds: Clear
Visibility: 10 km
2018/01/17 12:00 YMAY 171200Z AUTO 18004KT 040V200 9999 // NCD 20/09 Q1016
 
YNAR - Narrandera, Australia
Distance from station: WNW 250km
Updated: 17/01/2018 23:00

 Wind from calm
Wind: Calm
Temperature: 21°C
Dew Point: 7°C
Humidity: 40%
Barometer: 1016 hPa
2018/01/17 12:00 YNAR 171200Z AUTO 00000KT //// // ////// 21/07 Q1016
YSSY - Sydney Intl Airp, Australia
Distance from station: NE 253km
Updated: 17/01/2018 23:00
Few Clouds
Few Clouds
 Wind from WSW
Wind: WSW 17 km/h
Temperature: 18°C
Dew Point: 15°C
Humidity: 83%
Barometer: 1020 hPa
Clouds: Few Clouds
Visibility: 10 km
Cloud details: Few Clouds 762 m
2018/01/17 12:00 YSSY 171200Z 24009KT 9999 FEW025 18/15 Q1020 NOSIG
 
YSRI - Richmond (aus-Af, Australia
Distance from station: NE 257km
Updated: 17/01/2018 23:00
Clear
Clear
 Wind from calm
Wind: Calm
Temperature: 16°C
Dew Point: 9°C
Humidity: 63%
Barometer: 1020 hPa
Clouds: Clear
Visibility: 10 km
2018/01/17 12:00 YSRI 171200Z AUTO 00000KT 9999 // NCD 16/09 Q1020
YWGT - Wangaratta Arp, Australia
Distance from station: WSW 274km
Updated: 17/01/2018 23:00
Clear
Clear
 Wind from SSE
Wind: SSE 6 km/h
Temperature: 17°C
Dew Point: 7°C
Humidity: 52%
Barometer: 1016 hPa
Clouds: Clear
Visibility: 10 km
2018/01/17 12:00 YWGT 171200Z AUTO 15003KT 9999 // NCD 17/07 Q1016
 
YGTH - Griffith Arpt, Australia
Distance from station: WNW 308km
Updated: 17/01/2018 23:00
Clear
Clear
 Wind from ESE
Wind: ESE 13 km/h
Temperature: 22°C
Dew Point: 5°C
Humidity: 33%
Barometer: 1016 hPa
Clouds: Clear
Visibility: 10 km
2018/01/17 12:00 YGTH 171200Z AUTO 11007KT 9999 // NCD 22/05 Q1016